sensor_id;sensor_type;location;lat;lon;timestamp;pressure;altitude;pressure_sealevel;temperature;humidity
32320;BME280;19080;51.750;5.888;2023-01-27T00:00:33;102220.00;;;5.60;100.00
32320;BME280;19080;51.750;5.888;2023-01-27T00:03:00;102166.31;;;5.27;100.00
32320;BME280;19080;51.750;5.888;2023-01-27T00:05:26;102154.47;;;5.18;100.00
32320;BME280;19080;51.750;5.888;2023-01-27T00:07:53;102252.41;;;5.73;100.00
32320;BME280;19080;51.750;5.888;2023-01-27T00:10:20;102224.19;;;5.56;100.00
32320;BME280;19080;51.750;5.888;2023-01-27T00:12:47;102262.78;;;5.70;100.00
32320;BME280;19080;51.750;5.888;2023-01-27T00:15:33;102247.59;;;5.66;100.00
32320;BME280;19080;51.750;5.888;2023-01-27T00:18:00;102249.34;;;5.66;100.00
32320;BME280;19080;51.750;5.888;2023-01-27T00:20:27;102236.44;;;5.55;100.00
32320;BME280;19080;51.750;5.888;2023-01-27T00:25:59;102243.44;;;5.55;100.00
32320;BME280;19080;51.750;5.888;2023-01-27T00:28:27;102228.28;;;5.51;100.00
32320;BME280;19080;51.750;5.888;2023-01-27T00:30:57;102167.19;;;5.11;100.00
32320;BME280;19080;51.750;5.888;2023-01-27T00:33:25;102228.94;;;5.47;100.00
32320;BME280;19080;51.750;5.888;2023-01-27T00:36:06;102198.22;;;5.16;100.00
32320;BME280;19080;51.750;5.888;2023-01-27T00:38:34;102165.09;;;5.05;100.00
32320;BME280;19080;51.750;5.888;2023-01-27T00:41:07;102174.00;;;5.07;100.00
32320;BME280;19080;51.750;5.888;2023-01-27T00:43:50;102171.81;;;5.00;100.00
32320;BME280;19080;51.750;5.888;2023-01-27T00:46:18;102164.47;;;5.09;100.00
32320;BME280;19080;51.750;5.888;2023-01-27T00:48:45;102177.25;;;5.03;100.00
32320;BME280;19080;51.750;5.888;2023-01-27T00:51:13;102162.56;;;4.92;100.00
32320;BME280;19080;51.750;5.888;2023-01-27T00:53:40;102267.97;;;5.54;100.00
32320;BME280;19080;51.750;5.888;2023-01-27T00:56:07;102272.78;;;5.46;100.00
32320;BME280;19080;51.750;5.888;2023-01-27T00:58:34;102210.19;;;5.11;100.00
32320;BME280;19080;51.750;5.888;2023-01-27T01:01:03;102185.63;;;4.96;100.00
32320;BME280;19080;51.750;5.888;2023-01-27T01:03:31;102185.78;;;4.99;100.00
32320;BME280;19080;51.750;5.888;2023-01-27T01:06:00;102256.44;;;5.37;100.00
32320;BME280;19080;51.750;5.888;2023-01-27T01:08:30;102234.13;;;5.31;100.00
32320;BME280;19080;51.750;5.888;2023-01-27T01:10:57;102260.00;;;5.38;100.00
32320;BME280;19080;51.750;5.888;2023-01-27T01:13:25;102198.03;;;4.99;100.00
32320;BME280;19080;51.750;5.888;2023-01-27T01:15:54;102283.06;;;5.42;100.00
32320;BME280;19080;51.750;5.888;2023-01-27T01:18:21;102115.31;;;4.49;100.00
32320;BME280;19080;51.750;5.888;2023-01-27T01:20:47;102246.19;;;5.27;100.00
32320;BME280;19080;51.750;5.888;2023-01-27T01:23:15;102272.16;;;5.36;100.00
32320;BME280;19080;51.750;5.888;2023-01-27T01:25:41;102183.25;;;4.86;100.00
32320;BME280;19080;51.750;5.888;2023-01-27T01:28:09;102191.41;;;4.90;100.00
32320;BME280;19080;51.750;5.888;2023-01-27T01:30:36;102268.16;;;5.28;100.00
32320;BME280;19080;51.750;5.888;2023-01-27T01:33:04;102209.09;;;4.93;100.00
32320;BME280;19080;51.750;5.888;2023-01-27T01:35:36;102255.13;;;5.14;100.00
32320;BME280;19080;51.750;5.888;2023-01-27T01:38:03;102293.22;;;5.36;100.00
32320;BME280;19080;51.750;5.888;2023-01-27T01:40:30;102202.47;;;4.85;100.00
32320;BME280;19080;51.750;5.888;2023-01-27T01:43:00;102283.22;;;5.30;100.00
32320;BME280;19080;51.750;5.888;2023-01-27T01:47:58;102184.06;;;4.70;100.00
32320;BME280;19080;51.750;5.888;2023-01-27T01:50:26;102272.72;;;5.15;100.00
32320;BME280;19080;51.750;5.888;2023-01-27T01:52:53;102211.00;;;4.81;100.00
32320;BME280;19080;51.750;5.888;2023-01-27T01:55:21;102190.03;;;4.68;100.00
32320;BME280;19080;51.750;5.888;2023-01-27T01:57:48;102307.84;;;5.31;100.00
32320;BME280;19080;51.750;5.888;2023-01-27T02:00:15;102207.66;;;4.83;100.00
32320;BME280;19080;51.750;5.888;2023-01-27T02:02:46;102221.91;;;4.87;100.00
32320;BME280;19080;51.750;5.888;2023-01-27T02:05:19;102231.16;;;4.95;100.00
32320;BME280;19080;51.750;5.888;2023-01-27T02:10:36;102301.19;;;5.22;100.00
32320;BME280;19080;51.750;5.888;2023-01-27T02:13:02;102267.81;;;5.07;100.00
32320;BME280;19080;51.750;5.888;2023-01-27T02:15:30;102270.19;;;5.02;100.00
32320;BME280;19080;51.750;5.888;2023-01-27T02:17:58;102210.63;;;4.75;100.00
32320;BME280;19080;51.750;5.888;2023-01-27T02:23:01;102309.03;;;5.36;100.00
32320;BME280;19080;51.750;5.888;2023-01-27T02:28:04;102312.09;;;5.29;100.00
32320;BME280;19080;51.750;5.888;2023-01-27T02:30:32;102250.47;;;4.96;100.00
32320;BME280;19080;51.750;5.888;2023-01-27T02:32:59;102225.59;;;4.76;100.00
32320;BME280;19080;51.750;5.888;2023-01-27T02:38:10;102207.44;;;4.66;100.00
32320;BME280;19080;51.750;5.888;2023-01-27T02:40:38;102228.84;;;4.72;100.00
32320;BME280;19080;51.750;5.888;2023-01-27T02:43:05;102293.78;;;5.15;100.00
32320;BME280;19080;51.750;5.888;2023-01-27T02:45:32;102313.75;;;5.27;100.00
32320;BME280;19080;51.750;5.888;2023-01-27T02:47:58;102222.06;;;4.75;100.00
32320;BME280;19080;51.750;5.888;2023-01-27T02:50:25;102217.16;;;4.67;100.00
32320;BME280;19080;51.750;5.888;2023-01-27T02:52:52;102314.66;;;5.27;100.00
32320;BME280;19080;51.750;5.888;2023-01-27T02:55:20;102307.13;;;5.18;100.00
32320;BME280;19080;51.750;5.888;2023-01-27T02:57:47;102251.56;;;4.84;100.00
32320;BME280;19080;51.750;5.888;2023-01-27T03:00:43;102264.38;;;4.93;100.00
32320;BME280;19080;51.750;5.888;2023-01-27T03:03:11;102229.06;;;4.75;100.00
32320;BME280;19080;51.750;5.888;2023-01-27T03:05:39;102233.50;;;4.76;100.00
32320;BME280;19080;51.750;5.888;2023-01-27T03:08:07;102213.72;;;4.68;100.00
32320;BME280;19080;51.750;5.888;2023-01-27T03:10:34;102322.25;;;5.22;100.00
32320;BME280;19080;51.750;5.888;2023-01-27T03:13:00;102255.91;;;4.84;100.00
32320;BME280;19080;51.750;5.888;2023-01-27T03:15:27;102218.78;;;4.65;100.00
32320;BME280;19080;51.750;5.888;2023-01-27T03:18:13;102303.31;;;5.13;100.00
32320;BME280;19080;51.750;5.888;2023-01-27T03:20:46;102250.00;;;4.73;100.00
32320;BME280;19080;51.750;5.888;2023-01-27T03:23:15;102330.06;;;5.21;100.00
32320;BME280;19080;51.750;5.888;2023-01-27T03:25:47;102316.56;;;5.15;100.00
32320;BME280;19080;51.750;5.888;2023-01-27T03:28:14;102258.59;;;4.71;100.00
32320;BME280;19080;51.750;5.888;2023-01-27T03:31:04;102331.44;;;5.14;100.00
32320;BME280;19080;51.750;5.888;2023-01-27T03:33:43;102252.69;;;4.60;100.00
32320;BME280;19080;51.750;5.888;2023-01-27T03:36:24;102250.78;;;4.57;100.00
32320;BME280;19080;51.750;5.888;2023-01-27T03:39:09;102336.88;;;5.03;100.00
32320;BME280;19080;51.750;5.888;2023-01-27T03:41:54;102342.56;;;4.96;100.00
32320;BME280;19080;51.750;5.888;2023-01-27T03:44:40;102347.13;;;4.98;100.00
32320;BME280;19080;51.750;5.888;2023-01-27T03:47:25;102345.13;;;4.94;100.00
32320;BME280;19080;51.750;5.888;2023-01-27T03:49:52;102355.72;;;4.96;100.00
32320;BME280;19080;51.750;5.888;2023-01-27T03:52:19;102328.56;;;4.82;100.00
32320;BME280;19080;51.750;5.888;2023-01-27T03:54:45;102238.53;;;4.30;100.00
32320;BME280;19080;51.750;5.888;2023-01-27T03:57:12;102346.38;;;4.86;100.00
32320;BME280;19080;51.750;5.888;2023-01-27T03:59:39;102351.44;;;4.83;100.00
32320;BME280;19080;51.750;5.888;2023-01-27T04:02:05;102336.88;;;4.75;100.00
32320;BME280;19080;51.750;5.888;2023-01-27T04:04:50;102330.44;;;4.70;100.00
32320;BME280;19080;51.750;5.888;2023-01-27T04:07:36;102358.31;;;4.81;100.00
32320;BME280;19080;51.750;5.888;2023-01-27T04:10:04;102347.03;;;4.69;100.00
32320;BME280;19080;51.750;5.888;2023-01-27T04:12:31;102261.19;;;4.28;100.00
32320;BME280;19080;51.750;5.888;2023-01-27T04:14:57;102323.78;;;4.62;100.00
32320;BME280;19080;51.750;5.888;2023-01-27T04:17:24;102342.78;;;4.71;100.00
32320;BME280;19080;51.750;5.888;2023-01-27T04:19:51;102255.66;;;4.23;100.00
32320;BME280;19080;51.750;5.888;2023-01-27T04:22:17;102246.84;;;4.23;100.00
32320;BME280;19080;51.750;5.888;2023-01-27T04:24:44;102326.31;;;4.60;100.00
32320;BME280;19080;51.750;5.888;2023-01-27T04:27:13;102308.16;;;4.50;100.00
32320;BME280;19080;51.750;5.888;2023-01-27T04:29:41;102275.81;;;4.38;100.00
32320;BME280;19080;51.750;5.888;2023-01-27T04:32:10;102271.28;;;4.35;100.00
32320;BME280;19080;51.750;5.888;2023-01-27T04:34:38;102354.50;;;4.76;100.00
32320;BME280;19080;51.750;5.888;2023-01-27T04:37:06;102368.75;;;4.79;100.00
32320;BME280;19080;51.750;5.888;2023-01-27T04:39:34;102366.78;;;4.90;100.00
32320;BME280;19080;51.750;5.888;2023-01-27T04:42:00;102278.34;;;4.36;100.00
32320;BME280;19080;51.750;5.888;2023-01-27T04:44:28;102368.31;;;4.86;100.00
32320;BME280;19080;51.750;5.888;2023-01-27T04:46:55;102369.03;;;4.84;100.00
32320;BME280;19080;51.750;5.888;2023-01-27T04:49:22;102360.84;;;4.79;100.00
32320;BME280;19080;51.750;5.888;2023-01-27T04:51:48;102299.78;;;4.42;100.00
32320;BME280;19080;51.750;5.888;2023-01-27T04:54:15;102375.59;;;4.90;100.00
32320;BME280;19080;51.750;5.888;2023-01-27T04:56:54;102272.19;;;4.36;100.00
32320;BME280;19080;51.750;5.888;2023-01-27T04:59:21;102280.59;;;4.30;100.00
32320;BME280;19080;51.750;5.888;2023-01-27T05:01:47;102345.13;;;4.66;100.00
32320;BME280;19080;51.750;5.888;2023-01-27T05:04:14;102268.38;;;4.31;100.00
32320;BME280;19080;51.750;5.888;2023-01-27T05:06:41;102360.47;;;4.73;100.00
32320;BME280;19080;51.750;5.888;2023-01-27T05:09:07;102284.63;;;4.38;100.00
32320;BME280;19080;51.750;5.888;2023-01-27T05:11:34;102346.31;;;4.71;100.00
32320;BME280;19080;51.750;5.888;2023-01-27T05:14:00;102363.59;;;4.81;100.00
32320;BME280;19080;51.750;5.888;2023-01-27T05:16:27;102372.84;;;4.89;100.00
32320;BME280;19080;51.750;5.888;2023-01-27T05:18:54;102367.41;;;4.86;100.00
32320;BME280;19080;51.750;5.888;2023-01-27T05:21:24;102263.81;;;4.28;100.00
32320;BME280;19080;51.750;5.888;2023-01-27T05:23:53;102350.66;;;4.71;100.00
32320;BME280;19080;51.750;5.888;2023-01-27T05:26:25;102376.31;;;4.88;100.00
32320;BME280;19080;51.750;5.888;2023-01-27T05:28:53;102380.94;;;4.92;100.00
32320;BME280;19080;51.750;5.888;2023-01-27T05:31:27;102335.69;;;4.70;100.00
32320;BME280;19080;51.750;5.888;2023-01-27T05:33:55;102388.13;;;4.95;100.00
32320;BME280;19080;51.750;5.888;2023-01-27T05:36:23;102299.16;;;4.46;100.00
32320;BME280;19080;51.750;5.888;2023-01-27T05:38:50;102371.44;;;4.94;100.00
32320;BME280;19080;51.750;5.888;2023-01-27T05:41:18;102356.59;;;4.81;100.00
32320;BME280;19080;51.750;5.888;2023-01-27T05:43:46;102378.50;;;4.95;100.00
32320;BME280;19080;51.750;5.888;2023-01-27T05:46:18;102308.34;;;4.53;100.00
32320;BME280;19080;51.750;5.888;2023-01-27T05:48:47;102333.06;;;4.70;100.00
32320;BME280;19080;51.750;5.888;2023-01-27T05:51:16;102382.34;;;5.00;100.00
32320;BME280;19080;51.750;5.888;2023-01-27T05:53:43;102390.41;;;5.03;100.00
32320;BME280;19080;51.750;5.888;2023-01-27T05:56:12;102357.31;;;4.79;100.00
32320;BME280;19080;51.750;5.888;2023-01-27T05:58:40;102381.31;;;4.98;100.00
32320;BME280;19080;51.750;5.888;2023-01-27T06:03:38;102317.94;;;4.52;100.00
32320;BME280;19080;51.750;5.888;2023-01-27T06:06:05;102359.41;;;4.84;100.00
32320;BME280;19080;51.750;5.888;2023-01-27T06:08:33;102348.22;;;4.74;100.00
32320;BME280;19080;51.750;5.888;2023-01-27T06:11:00;102404.56;;;5.05;100.00
32320;BME280;19080;51.750;5.888;2023-01-27T06:13:27;102360.13;;;4.82;100.00
32320;BME280;19080;51.750;5.888;2023-01-27T06:15:53;102402.84;;;5.06;100.00
32320;BME280;19080;51.750;5.888;2023-01-27T06:18:23;102398.31;;;5.03;100.00
32320;BME280;19080;51.750;5.888;2023-01-27T06:20:49;102398.13;;;5.00;100.00
32320;BME280;19080;51.750;5.888;2023-01-27T06:23:16;102392.84;;;5.00;100.00
32320;BME280;19080;51.750;5.888;2023-01-27T06:25:45;102408.03;;;5.04;100.00
32320;BME280;19080;51.750;5.888;2023-01-27T06:28:13;102417.94;;;5.08;100.00
32320;BME280;19080;51.750;5.888;2023-01-27T06:30:54;102422.38;;;5.09;100.00
32320;BME280;19080;51.750;5.888;2023-01-27T06:33:22;102320.69;;;4.54;100.00
32320;BME280;19080;51.750;5.888;2023-01-27T06:35:48;102401.84;;;5.04;100.00
32320;BME280;19080;51.750;5.888;2023-01-27T06:38:15;102428.13;;;5.17;100.00
32320;BME280;19080;51.750;5.888;2023-01-27T06:40:41;102317.44;;;4.58;100.00
32320;BME280;19080;51.750;5.888;2023-01-27T06:43:12;102434.28;;;5.17;100.00
32320;BME280;19080;51.750;5.888;2023-01-27T06:45:39;102305.47;;;4.35;100.00
32320;BME280;19080;51.750;5.888;2023-01-27T06:48:06;102398.78;;;4.83;100.00
32320;BME280;19080;51.750;5.888;2023-01-27T06:50:36;102347.88;;;4.54;100.00
32320;BME280;19080;51.750;5.888;2023-01-27T06:53:04;102345.97;;;4.52;100.00
32320;BME280;19080;51.750;5.888;2023-01-27T06:55:33;102326.59;;;4.37;100.00
32320;BME280;19080;51.750;5.888;2023-01-27T06:58:00;102342.34;;;4.37;100.00
32320;BME280;19080;51.750;5.888;2023-01-27T07:00:28;102439.66;;;4.91;100.00
32320;BME280;19080;51.750;5.888;2023-01-27T07:02:55;102446.81;;;4.94;100.00
32320;BME280;19080;51.750;5.888;2023-01-27T07:05:22;102348.63;;;4.39;100.00
32320;BME280;19080;51.750;5.888;2023-01-27T07:07:49;102426.50;;;4.91;100.00
32320;BME280;19080;51.750;5.888;2023-01-27T07:10:16;102432.13;;;4.97;100.00
32320;BME280;19080;51.750;5.888;2023-01-27T07:12:42;102369.50;;;4.64;100.00
32320;BME280;19080;51.750;5.888;2023-01-27T07:15:10;102349.06;;;4.60;100.00
32320;BME280;19080;51.750;5.888;2023-01-27T07:17:37;102398.56;;;4.93;100.00
32320;BME280;19080;51.750;5.888;2023-01-27T07:20:05;102410.09;;;4.95;100.00
32320;BME280;19080;51.750;5.888;2023-01-27T07:22:32;102447.88;;;5.10;100.00
32320;BME280;19080;51.750;5.888;2023-01-27T07:24:58;102445.44;;;5.13;100.00
32320;BME280;19080;51.750;5.888;2023-01-27T07:27:25;102425.16;;;4.98;100.00
32320;BME280;19080;51.750;5.888;2023-01-27T07:29:51;102464.06;;;5.16;100.00
32320;BME280;19080;51.750;5.888;2023-01-27T07:32:18;102465.88;;;5.17;100.00
32320;BME280;19080;51.750;5.888;2023-01-27T07:34:45;102389.81;;;4.66;100.00
32320;BME280;19080;51.750;5.888;2023-01-27T07:37:12;102400.72;;;4.72;100.00
32320;BME280;19080;51.750;5.888;2023-01-27T07:39:39;102474.59;;;5.16;100.00
32320;BME280;19080;51.750;5.888;2023-01-27T07:42:06;102407.72;;;4.72;100.00
32320;BME280;19080;51.750;5.888;2023-01-27T07:44:35;102435.38;;;4.93;100.00
32320;BME280;19080;51.750;5.888;2023-01-27T07:47:01;102476.31;;;5.16;100.00
32320;BME280;19080;51.750;5.888;2023-01-27T07:49:28;102487.09;;;5.20;100.00
32320;BME280;19080;51.750;5.888;2023-01-27T07:51:54;102465.31;;;5.08;100.00
32320;BME280;19080;51.750;5.888;2023-01-27T07:54:21;102493.28;;;5.21;100.00
32320;BME280;19080;51.750;5.888;2023-01-27T07:56:48;102452.19;;;4.95;100.00
32320;BME280;19080;51.750;5.888;2023-01-27T07:59:14;102494.38;;;5.24;100.00
32320;BME280;19080;51.750;5.888;2023-01-27T08:01:41;102384.03;;;4.72;100.00
32320;BME280;19080;51.750;5.888;2023-01-27T08:04:08;102486.38;;;5.23;100.00
32320;BME280;19080;51.750;5.888;2023-01-27T08:06:38;102388.72;;;4.63;100.00
32320;BME280;19080;51.750;5.888;2023-01-27T08:09:05;102410.94;;;4.81;100.00
32320;BME280;19080;51.750;5.888;2023-01-27T08:11:32;102392.44;;;4.66;100.00
32320;BME280;19080;51.750;5.888;2023-01-27T08:13:59;102484.72;;;5.10;100.00
32320;BME280;19080;51.750;5.888;2023-01-27T08:16:26;102488.47;;;5.14;100.00
32320;BME280;19080;51.750;5.888;2023-01-27T08:18:53;102497.47;;;5.17;100.00
32320;BME280;19080;51.750;5.888;2023-01-27T08:21:20;102428.94;;;4.88;100.00
32320;BME280;19080;51.750;5.888;2023-01-27T08:23:46;102498.31;;;5.31;100.00
32320;BME280;19080;51.750;5.888;2023-01-27T08:26:13;102505.28;;;5.31;100.00
32320;BME280;19080;51.750;5.888;2023-01-27T08:28:39;102407.09;;;4.76;100.00
32320;BME280;19080;51.750;5.888;2023-01-27T08:31:09;102416.88;;;4.92;100.00
32320;BME280;19080;51.750;5.888;2023-01-27T08:33:36;102462.88;;;5.11;100.00
32320;BME280;19080;51.750;5.888;2023-01-27T08:36:14;102500.03;;;5.31;100.00
32320;BME280;19080;51.750;5.888;2023-01-27T08:38:42;102509.94;;;5.35;100.00
32320;BME280;19080;51.750;5.888;2023-01-27T08:41:12;102524.31;;;5.40;100.00
32320;BME280;19080;51.750;5.888;2023-01-27T08:43:39;102529.28;;;5.35;100.00
32320;BME280;19080;51.750;5.888;2023-01-27T08:46:07;102448.34;;;4.90;100.00
32320;BME280;19080;51.750;5.888;2023-01-27T08:48:34;102516.75;;;5.31;100.00
32320;BME280;19080;51.750;5.888;2023-01-27T08:51:02;102537.47;;;5.40;100.00
32320;BME280;19080;51.750;5.888;2023-01-27T08:53:29;102486.16;;;5.05;100.00
32320;BME280;19080;51.750;5.888;2023-01-27T08:55:58;102465.63;;;5.00;100.00
32320;BME280;19080;51.750;5.888;2023-01-27T08:58:27;102443.09;;;4.90;100.00
32320;BME280;19080;51.750;5.888;2023-01-27T09:00:53;102503.56;;;5.16;100.00
32320;BME280;19080;51.750;5.888;2023-01-27T09:03:20;102448.94;;;4.99;100.00
32320;BME280;19080;51.750;5.888;2023-01-27T09:05:47;102455.63;;;4.94;100.00
32320;BME280;19080;51.750;5.888;2023-01-27T09:08:13;102446.91;;;4.95;100.00
32320;BME280;19080;51.750;5.888;2023-01-27T09:10:41;102540.31;;;5.43;100.00
32320;BME280;19080;51.750;5.888;2023-01-27T09:13:08;102553.75;;;5.47;100.00
32320;BME280;19080;51.750;5.888;2023-01-27T09:15:36;102540.69;;;5.49;100.00
32320;BME280;19080;51.750;5.888;2023-01-27T09:18:03;102538.28;;;5.39;100.00
32320;BME280;19080;51.750;5.888;2023-01-27T09:20:32;102545.75;;;5.46;100.00
32320;BME280;19080;51.750;5.888;2023-01-27T09:22:59;102465.81;;;5.03;100.00
32320;BME280;19080;51.750;5.888;2023-01-27T09:25:26;102535.84;;;5.42;100.00
32320;BME280;19080;51.750;5.888;2023-01-27T09:27:54;102540.06;;;5.53;100.00
32320;BME280;19080;51.750;5.888;2023-01-27T09:30:21;102561.53;;;5.59;100.00
32320;BME280;19080;51.750;5.888;2023-01-27T09:32:49;102565.25;;;5.63;100.00
32320;BME280;19080;51.750;5.888;2023-01-27T09:35:16;102469.94;;;5.12;100.00
32320;BME280;19080;51.750;5.888;2023-01-27T09:37:46;102495.47;;;5.28;100.00
32320;BME280;19080;51.750;5.888;2023-01-27T09:40:40;102567.06;;;5.64;100.00
32320;BME280;19080;51.750;5.888;2023-01-27T09:54:50;102489.50;;;5.31;100.00
32320;BME280;19080;51.750;5.888;2023-01-27T09:57:38;102586.38;;;5.91;100.00
32320;BME280;19080;51.750;5.888;2023-01-27T10:00:31;102581.28;;;5.94;100.00
32320;BME280;19080;51.750;5.888;2023-01-27T10:06:10;102583.09;;;5.95;100.00
32320;BME280;19080;51.750;5.888;2023-01-27T10:09:25;102582.38;;;5.97;100.00
32320;BME280;19080;51.750;5.888;2023-01-27T10:15:02;102580.03;;;6.02;100.00
32320;BME280;19080;51.750;5.888;2023-01-27T10:18:08;102579.22;;;6.03;100.00
32320;BME280;19080;51.750;5.888;2023-01-27T10:20:51;102579.22;;;6.03;100.00
32320;BME280;19080;51.750;5.888;2023-01-27T10:24:17;102571.22;;;6.01;100.00
32320;BME280;19080;51.750;5.888;2023-01-27T10:26:55;102487.19;;;5.50;100.00
32320;BME280;19080;51.750;5.888;2023-01-27T10:29:33;102577.28;;;6.00;100.00
32320;BME280;19080;51.750;5.888;2023-01-27T10:32:24;102569.66;;;6.05;100.00
32320;BME280;19080;51.750;5.888;2023-01-27T10:35:08;102474.78;;;5.62;100.00
32320;BME280;19080;51.750;5.888;2023-01-27T10:43:03;102555.69;;;6.20;100.00
32320;BME280;19080;51.750;5.888;2023-01-27T10:51:13;102551.34;;;6.50;100.00
32320;BME280;19080;51.750;5.888;2023-01-27T10:59:25;102492.75;;;6.41;100.00
32320;BME280;19080;51.750;5.888;2023-01-27T11:01:59;102535.03;;;6.72;100.00
32320;BME280;19080;51.750;5.888;2023-01-27T11:04:34;102515.28;;;6.66;100.00
32320;BME280;19080;51.750;5.888;2023-01-27T11:07:04;102562.56;;;6.92;100.00
32320;BME280;19080;51.750;5.888;2023-01-27T11:09:35;102562.06;;;6.99;100.00
32320;BME280;19080;51.750;5.888;2023-01-27T11:12:07;102553.84;;;7.09;100.00
32320;BME280;19080;51.750;5.888;2023-01-27T11:14:47;102479.25;;;6.66;100.00
32320;BME280;19080;51.750;5.888;2023-01-27T11:17:34;102553.75;;;7.08;100.00
32320;BME280;19080;51.750;5.888;2023-01-27T11:20:11;102551.88;;;7.22;100.00
32320;BME280;19080;51.750;5.888;2023-01-27T11:23:04;102544.00;;;7.38;100.00
32320;BME280;19080;51.750;5.888;2023-01-27T11:26:05;102531.34;;;7.32;100.00
32320;BME280;19080;51.750;5.888;2023-01-27T11:35:00;102537.91;;;7.55;100.00
32320;BME280;19080;51.750;5.888;2023-01-27T11:37:37;102541.38;;;7.54;100.00
32320;BME280;19080;51.750;5.888;2023-01-27T11:40:16;102519.91;;;7.80;100.00
32320;BME280;19080;51.750;5.888;2023-01-27T11:42:44;102531.03;;;7.91;100.00
32320;BME280;19080;51.750;5.888;2023-01-27T11:45:16;102506.66;;;7.97;100.00
32320;BME280;19080;51.750;5.888;2023-01-27T11:47:44;102530.75;;;8.19;100.00
32320;BME280;19080;51.750;5.888;2023-01-27T11:50:17;102526.31;;;8.02;100.00
32320;BME280;19080;51.750;5.888;2023-01-27T11:55:44;102521.72;;;7.49;100.00
32320;BME280;19080;51.750;5.888;2023-01-27T11:58:23;102456.97;;;7.08;100.00
32320;BME280;19080;51.750;5.888;2023-01-27T12:01:02;102526.91;;;7.64;100.00
32320;BME280;19080;51.750;5.888;2023-01-27T12:03:47;102528.31;;;7.73;100.00
32320;BME280;19080;51.750;5.888;2023-01-27T12:06:31;102454.09;;;7.53;100.00
32320;BME280;19080;51.750;5.888;2023-01-27T12:08:59;102528.31;;;7.90;100.00
32320;BME280;19080;51.750;5.888;2023-01-27T12:11:29;102508.84;;;7.71;100.00
32320;BME280;19080;51.750;5.888;2023-01-27T12:14:01;102522.72;;;7.67;100.00
32320;BME280;19080;51.750;5.888;2023-01-27T12:16:40;102526.69;;;7.59;100.00
32320;BME280;19080;51.750;5.888;2023-01-27T12:19:27;102533.59;;;7.41;100.00
32320;BME280;19080;51.750;5.888;2023-01-27T12:22:00;102519.22;;;7.36;100.00
32320;BME280;19080;51.750;5.888;2023-01-27T12:24:37;102502.38;;;7.34;100.00
32320;BME280;19080;51.750;5.888;2023-01-27T12:27:05;102501.31;;;7.30;100.00
32320;BME280;19080;51.750;5.888;2023-01-27T12:29:41;102495.28;;;7.33;100.00
32320;BME280;19080;51.750;5.888;2023-01-27T12:32:20;102514.28;;;7.42;100.00
32320;BME280;19080;51.750;5.888;2023-01-27T12:34:50;102501.25;;;7.45;100.00
32320;BME280;19080;51.750;5.888;2023-01-27T12:37:41;102506.19;;;7.55;100.00
32320;BME280;19080;51.750;5.888;2023-01-27T12:40:17;102483.91;;;7.50;100.00
32320;BME280;19080;51.750;5.888;2023-01-27T12:42:48;102487.19;;;7.46;100.00
32320;BME280;19080;51.750;5.888;2023-01-27T12:50:51;102501.72;;;7.54;100.00
32320;BME280;19080;51.750;5.888;2023-01-27T12:53:21;102493.22;;;7.60;100.00
32320;BME280;19080;51.750;5.888;2023-01-27T13:01:32;102498.75;;;7.48;100.00
32320;BME280;19080;51.750;5.888;2023-01-27T13:04:03;102494.81;;;7.56;100.00
32320;BME280;19080;51.750;5.888;2023-01-27T13:06:43;102479.69;;;7.70;100.00
32320;BME280;19080;51.750;5.888;2023-01-27T13:11:48;102411.91;;;7.38;100.00
32320;BME280;19080;51.750;5.888;2023-01-27T13:14:16;102392.19;;;7.15;100.00
32320;BME280;19080;51.750;5.888;2023-01-27T13:16:54;102491.41;;;7.59;100.00
32320;BME280;19080;51.750;5.888;2023-01-27T13:19:33;102424.47;;;7.09;100.00
32320;BME280;19080;51.750;5.888;2023-01-27T13:22:03;102415.53;;;7.07;100.00
32320;BME280;19080;51.750;5.888;2023-01-27T13:24:36;102483.97;;;7.35;100.00
32320;BME280;19080;51.750;5.888;2023-01-27T13:27:12;102501.06;;;7.26;100.00
32320;BME280;19080;51.750;5.888;2023-01-27T13:29:47;102498.00;;;7.18;100.00
32320;BME280;19080;51.750;5.888;2023-01-27T13:32:23;102490.03;;;7.02;100.00
32320;BME280;19080;51.750;5.888;2023-01-27T13:35:00;102485.31;;;6.96;100.00
32320;BME280;19080;51.750;5.888;2023-01-27T13:37:58;102503.16;;;7.00;100.00
32320;BME280;19080;51.750;5.888;2023-01-27T13:40:41;102494.91;;;6.94;100.00
32320;BME280;19080;51.750;5.888;2023-01-27T13:43:24;102412.81;;;6.42;100.00
32320;BME280;19080;51.750;5.888;2023-01-27T13:48:44;102509.91;;;6.95;100.00
32320;BME280;19080;51.750;5.888;2023-01-27T13:51:18;102490.47;;;6.93;100.00
32320;BME280;19080;51.750;5.888;2023-01-27T13:53:47;102511.16;;;7.02;100.00
32320;BME280;19080;51.750;5.888;2023-01-27T14:02:28;102510.06;;;6.82;100.00
32320;BME280;19080;51.750;5.888;2023-01-27T14:07:40;102506.44;;;6.80;100.00
32320;BME280;19080;51.750;5.888;2023-01-27T14:10:19;102515.44;;;6.83;100.00
32320;BME280;19080;51.750;5.888;2023-01-27T14:13:04;102516.00;;;6.78;100.00
32320;BME280;19080;51.750;5.888;2023-01-27T14:18:31;102524.19;;;6.68;100.00
32320;BME280;19080;51.750;5.888;2023-01-27T14:29:27;102536.41;;;6.51;100.00
32320;BME280;19080;51.750;5.888;2023-01-27T14:40:20;102510.41;;;6.13;100.00
32320;BME280;19080;51.750;5.888;2023-01-27T14:43:03;102545.31;;;6.24;100.00
32320;BME280;19080;51.750;5.888;2023-01-27T14:45:38;102465.38;;;5.80;100.00
32320;BME280;19080;51.750;5.888;2023-01-27T14:57:06;102526.94;;;5.96;100.00
32320;BME280;19080;51.750;5.888;2023-01-27T15:02:46;102542.13;;;6.00;100.00
32320;BME280;19080;51.750;5.888;2023-01-27T15:05:23;102537.09;;;5.90;100.00
32320;BME280;19080;51.750;5.888;2023-01-27T15:08:03;102556.94;;;5.98;100.00
32320;BME280;19080;51.750;5.888;2023-01-27T15:10:37;102485.03;;;5.57;100.00